Terminal Aerodrome Forecast
Issued by NWS Detroit/Pontiac, MI

Home | Current Version | Previous Version | Text Only | Print | Product List | Glossary On
Versions: 1 2 3 4 5 6 7 8 9 10 11 12 13 14 15 16 17 18
011
FTUS43 KDTX 021125
TAFFNT
TAF
KFNT 021125Z 0212/0312 02006KT P6SM OVC007
     FM021400 03012KT P6SM SCT015 OVC025
     FM021800 02009KT P6SM BKN040
     FM022300 35003KT P6SM SKC=

USA.gov is the U.S. government's official web portal to all federal, state and local government web resources and services.